sensor_id;sensor_type;location;lat;lon;timestamp;pressure;altitude;pressure_sealevel;temperature;humidity
18527;BME280;9393;42.158;24.748;2023-03-14T00:01:38;100026.09;;;9.25;44.44
18527;BME280;9393;42.158;24.748;2023-03-14T00:04:42;100022.91;;;9.33;44.44
18527;BME280;9393;42.158;24.748;2023-03-14T00:07:46;100033.41;;;9.31;44.36
18527;BME280;9393;42.158;24.748;2023-03-14T00:10:52;100024.50;;;9.45;44.29
18527;BME280;9393;42.158;24.748;2023-03-14T00:13:56;100016.19;;;9.08;45.23
18527;BME280;9393;42.158;24.748;2023-03-14T00:17:01;100019.41;;;9.00;45.67
18527;BME280;9393;42.158;24.748;2023-03-14T00:20:07;100009.47;;;8.94;45.82
18527;BME280;9393;42.158;24.748;2023-03-14T00:23:12;99998.25;;;8.94;45.91
18527;BME280;9393;42.158;24.748;2023-03-14T00:26:19;100004.88;;;8.87;45.83
18527;BME280;9393;42.158;24.748;2023-03-14T00:29:24;100004.53;;;8.80;46.17
18527;BME280;9393;42.158;24.748;2023-03-14T00:32:29;99996.47;;;8.94;46.02
18527;BME280;9393;42.158;24.748;2023-03-14T00:35:33;99989.25;;;8.98;46.19
18527;BME280;9393;42.158;24.748;2023-03-14T00:38:39;99987.75;;;8.73;46.72
18527;BME280;9393;42.158;24.748;2023-03-14T00:41:45;99977.69;;;8.80;46.64
18527;BME280;9393;42.158;24.748;2023-03-14T00:44:49;99981.25;;;8.68;46.72
18527;BME280;9393;42.158;24.748;2023-03-14T00:47:53;99974.38;;;8.67;46.64
18527;BME280;9393;42.158;24.748;2023-03-14T00:50:59;99966.94;;;8.62;46.61
18527;BME280;9393;42.158;24.748;2023-03-14T00:54:03;99970.25;;;8.53;46.64
18527;BME280;9393;42.158;24.748;2023-03-14T00:57:08;99966.59;;;8.55;46.74
18527;BME280;9393;42.158;24.748;2023-03-14T01:00:14;99957.56;;;8.15;47.90
18527;BME280;9393;42.158;24.748;2023-03-14T01:03:18;99957.97;;;8.44;46.93
18527;BME280;9393;42.158;24.748;2023-03-14T01:06:25;99951.28;;;8.18;47.66
18527;BME280;9393;42.158;24.748;2023-03-14T01:09:30;99949.03;;;7.91;48.06
18527;BME280;9393;42.158;24.748;2023-03-14T01:12:35;99948.94;;;7.57;49.55
18527;BME280;9393;42.158;24.748;2023-03-14T01:15:39;99933.53;;;7.78;48.69
18527;BME280;9393;42.158;24.748;2023-03-14T01:18:46;99939.34;;;7.82;48.87
18527;BME280;9393;42.158;24.748;2023-03-14T01:21:51;99924.50;;;8.06;47.60
18527;BME280;9393;42.158;24.748;2023-03-14T01:24:55;99929.28;;;8.34;47.41
18527;BME280;9393;42.158;24.748;2023-03-14T01:28:00;99924.38;;;8.07;48.03
18527;BME280;9393;42.158;24.748;2023-03-14T01:31:07;99928.66;;;8.20;47.68
18527;BME280;9393;42.158;24.748;2023-03-14T01:34:12;99932.22;;;8.41;46.94
18527;BME280;9393;42.158;24.748;2023-03-14T01:37:16;99931.63;;;8.59;46.57
18527;BME280;9393;42.158;24.748;2023-03-14T01:40:22;99924.63;;;8.71;46.33
18527;BME280;9393;42.158;24.748;2023-03-14T01:43:28;99926.31;;;8.72;46.54
18527;BME280;9393;42.158;24.748;2023-03-14T01:46:37;99921.78;;;8.74;46.51
18527;BME280;9393;42.158;24.748;2023-03-14T01:49:42;99924.84;;;8.79;46.11
18527;BME280;9393;42.158;24.748;2023-03-14T01:52:49;99924.13;;;8.88;45.90
18527;BME280;9393;42.158;24.748;2023-03-14T01:55:55;99918.16;;;8.54;46.22
18527;BME280;9393;42.158;24.748;2023-03-14T01:59:04;99908.31;;;8.69;46.36
18527;BME280;9393;42.158;24.748;2023-03-14T02:02:11;99910.47;;;8.53;46.62
18527;BME280;9393;42.158;24.748;2023-03-14T02:05:19;99904.44;;;8.52;46.52
18527;BME280;9393;42.158;24.748;2023-03-14T02:08:37;99904.28;;;8.21;47.33
18527;BME280;9393;42.158;24.748;2023-03-14T02:11:50;99901.38;;;8.36;47.14
18527;BME280;9393;42.158;24.748;2023-03-14T02:15:18;99914.09;;;7.95;48.14
18527;BME280;9393;42.158;24.748;2023-03-14T02:18:45;99903.41;;;8.33;46.99
18527;BME280;9393;42.158;24.748;2023-03-14T02:22:16;99896.31;;;8.35;47.05
18527;BME280;9393;42.158;24.748;2023-03-14T02:25:37;99907.38;;;8.26;47.35
18527;BME280;9393;42.158;24.748;2023-03-14T02:28:44;99895.38;;;8.36;46.65
18527;BME280;9393;42.158;24.748;2023-03-14T02:31:49;99903.25;;;8.45;46.47
18527;BME280;9393;42.158;24.748;2023-03-14T02:34:55;99899.84;;;8.45;46.78
18527;BME280;9393;42.158;24.748;2023-03-14T02:38:04;99905.91;;;8.34;47.00
18527;BME280;9393;42.158;24.748;2023-03-14T02:41:15;99898.31;;;8.42;46.54
18527;BME280;9393;42.158;24.748;2023-03-14T02:44:28;99895.78;;;8.07;47.38
18527;BME280;9393;42.158;24.748;2023-03-14T02:47:34;99904.31;;;8.09;47.16
18527;BME280;9393;42.158;24.748;2023-03-14T02:50:41;99906.91;;;8.09;47.48
18527;BME280;9393;42.158;24.748;2023-03-14T02:53:46;99906.91;;;8.21;47.14
18527;BME280;9393;42.158;24.748;2023-03-14T02:56:50;99919.06;;;8.09;47.55
18527;BME280;9393;42.158;24.748;2023-03-14T02:59:58;99919.81;;;7.65;48.56
18527;BME280;9393;42.158;24.748;2023-03-14T03:03:09;99915.16;;;8.14;47.31
18527;BME280;9393;42.158;24.748;2023-03-14T03:06:13;99913.16;;;8.07;47.37
18527;BME280;9393;42.158;24.748;2023-03-14T03:09:17;99914.03;;;8.30;46.91
18527;BME280;9393;42.158;24.748;2023-03-14T03:12:23;99928.91;;;8.39;46.60
18527;BME280;9393;42.158;24.748;2023-03-14T03:15:28;99921.34;;;8.36;46.78
18527;BME280;9393;42.158;24.748;2023-03-14T03:18:33;99916.91;;;7.81;48.42
18527;BME280;9393;42.158;24.748;2023-03-14T03:21:37;99915.66;;;8.20;47.10
18527;BME280;9393;42.158;24.748;2023-03-14T03:24:41;99918.59;;;8.15;47.27
18527;BME280;9393;42.158;24.748;2023-03-14T03:27:45;99918.84;;;8.23;46.79
18527;BME280;9393;42.158;24.748;2023-03-14T03:30:53;99912.69;;;8.02;47.57
18527;BME280;9393;42.158;24.748;2023-03-14T03:33:58;99914.31;;;7.92;47.93
18527;BME280;9393;42.158;24.748;2023-03-14T03:37:02;99910.19;;;8.00;47.51
18527;BME280;9393;42.158;24.748;2023-03-14T03:40:12;99910.66;;;7.94;47.50
18527;BME280;9393;42.158;24.748;2023-03-14T03:43:16;99912.44;;;7.13;50.02
18527;BME280;9393;42.158;24.748;2023-03-14T03:46:24;99911.91;;;7.32;49.71
18527;BME280;9393;42.158;24.748;2023-03-14T03:49:29;99908.00;;;7.61;48.84
18527;BME280;9393;42.158;24.748;2023-03-14T03:52:34;99912.94;;;7.53;49.12
18527;BME280;9393;42.158;24.748;2023-03-14T03:55:40;99913.53;;;7.56;49.31
18527;BME280;9393;42.158;24.748;2023-03-14T03:58:45;99901.16;;;7.60;48.96
18527;BME280;9393;42.158;24.748;2023-03-14T04:01:51;99902.19;;;7.46;49.83
18527;BME280;9393;42.158;24.748;2023-03-14T04:04:55;99893.69;;;7.21;50.77
18527;BME280;9393;42.158;24.748;2023-03-14T04:07:59;99893.47;;;6.76;51.97
18527;BME280;9393;42.158;24.748;2023-03-14T04:11:05;99897.25;;;6.72;52.92
18527;BME280;9393;42.158;24.748;2023-03-14T04:14:23;99888.25;;;7.13;51.29
18527;BME280;9393;42.158;24.748;2023-03-14T04:17:43;99888.84;;;7.40;50.53
18527;BME280;9393;42.158;24.748;2023-03-14T04:20:51;99888.91;;;7.73;49.37
18527;BME280;9393;42.158;24.748;2023-03-14T04:23:57;99886.72;;;7.45;50.63
18527;BME280;9393;42.158;24.748;2023-03-14T04:27:05;99890.00;;;7.36;51.57
18527;BME280;9393;42.158;24.748;2023-03-14T04:30:10;99875.69;;;7.65;50.01
18527;BME280;9393;42.158;24.748;2023-03-14T04:33:23;99869.94;;;7.95;49.15
18527;BME280;9393;42.158;24.748;2023-03-14T04:36:31;99873.94;;;7.77;49.65
18527;BME280;9393;42.158;24.748;2023-03-14T04:39:39;99876.53;;;7.77;49.62
18527;BME280;9393;42.158;24.748;2023-03-14T04:43:10;99866.88;;;7.79;49.46
18527;BME280;9393;42.158;24.748;2023-03-14T04:46:26;99870.09;;;7.13;51.62
18527;BME280;9393;42.158;24.748;2023-03-14T04:49:31;99874.34;;;7.48;50.68
18527;BME280;9393;42.158;24.748;2023-03-14T04:52:36;99869.91;;;7.61;50.11
18527;BME280;9393;42.158;24.748;2023-03-14T04:55:40;99871.91;;;7.69;50.28
18527;BME280;9393;42.158;24.748;2023-03-14T04:58:44;99888.91;;;7.27;51.84
18527;BME280;9393;42.158;24.748;2023-03-14T05:01:51;99884.09;;;7.45;51.23
18527;BME280;9393;42.158;24.748;2023-03-14T05:05:16;99896.28;;;7.55;51.20
18527;BME280;9393;42.158;24.748;2023-03-14T05:08:55;99895.44;;;7.09;52.60
18527;BME280;9393;42.158;24.748;2023-03-14T05:12:17;99904.44;;;7.51;51.39
18527;BME280;9393;42.158;24.748;2023-03-14T05:15:42;99911.75;;;6.98;52.28
18527;BME280;9393;42.158;24.748;2023-03-14T05:19:12;99903.88;;;7.70;50.03
18527;BME280;9393;42.158;24.748;2023-03-14T05:22:36;99901.28;;;7.70;50.18
18527;BME280;9393;42.158;24.748;2023-03-14T05:25:50;99907.25;;;7.48;49.95
18527;BME280;9393;42.158;24.748;2023-03-14T05:29:02;99916.25;;;7.66;49.69
18527;BME280;9393;42.158;24.748;2023-03-14T05:32:19;99912.28;;;7.38;50.19
18527;BME280;9393;42.158;24.748;2023-03-14T05:35:29;99909.63;;;7.62;49.64
18527;BME280;9393;42.158;24.748;2023-03-14T05:38:55;99913.22;;;7.72;49.43
18527;BME280;9393;42.158;24.748;2023-03-14T05:42:13;99917.66;;;7.48;49.90
18527;BME280;9393;42.158;24.748;2023-03-14T05:45:29;99908.00;;;7.61;49.92
18527;BME280;9393;42.158;24.748;2023-03-14T05:48:58;99897.56;;;7.96;48.72
18527;BME280;9393;42.158;24.748;2023-03-14T05:52:02;99910.03;;;7.80;49.43
18527;BME280;9393;42.158;24.748;2023-03-14T05:55:11;99910.22;;;8.56;47.77
18527;BME280;9393;42.158;24.748;2023-03-14T05:58:45;99910.88;;;8.91;46.95
18527;BME280;9393;42.158;24.748;2023-03-14T06:02:15;99912.97;;;9.08;46.67
18527;BME280;9393;42.158;24.748;2023-03-14T06:05:31;99909.31;;;9.32;45.16
18527;BME280;9393;42.158;24.748;2023-03-14T06:08:36;99914.69;;;9.51;45.31
18527;BME280;9393;42.158;24.748;2023-03-14T06:11:45;99909.91;;;9.77;45.40
18527;BME280;9393;42.158;24.748;2023-03-14T06:14:50;99896.53;;;9.81;44.91
18527;BME280;9393;42.158;24.748;2023-03-14T06:17:54;99901.16;;;9.36;46.03
18527;BME280;9393;42.158;24.748;2023-03-14T06:21:01;99897.84;;;9.76;44.81
18527;BME280;9393;42.158;24.748;2023-03-14T06:24:05;99897.25;;;10.13;44.43
18527;BME280;9393;42.158;24.748;2023-03-14T06:27:20;99891.16;;;10.03;44.69
18527;BME280;9393;42.158;24.748;2023-03-14T06:30:28;99887.81;;;9.92;44.67
18527;BME280;9393;42.158;24.748;2023-03-14T06:33:32;99889.69;;;10.10;44.58
18527;BME280;9393;42.158;24.748;2023-03-14T06:36:38;99890.06;;;10.76;43.35
18527;BME280;9393;42.158;24.748;2023-03-14T06:39:42;99893.28;;;10.99;43.31
18527;BME280;9393;42.158;24.748;2023-03-14T06:42:58;99890.13;;;11.14;43.53
18527;BME280;9393;42.158;24.748;2023-03-14T06:46:05;99902.34;;;11.04;43.10
18527;BME280;9393;42.158;24.748;2023-03-14T06:49:12;99897.53;;;11.38;42.66
18527;BME280;9393;42.158;24.748;2023-03-14T06:52:17;99897.81;;;11.64;41.80
18527;BME280;9393;42.158;24.748;2023-03-14T06:55:21;99885.66;;;12.01;40.98
18527;BME280;9393;42.158;24.748;2023-03-14T06:58:29;99891.50;;;10.99;42.17
18527;BME280;9393;42.158;24.748;2023-03-14T07:01:34;99877.03;;;11.62;41.75
18527;BME280;9393;42.158;24.748;2023-03-14T07:04:41;99875.53;;;11.60;42.28
18527;BME280;9393;42.158;24.748;2023-03-14T07:07:46;99874.97;;;11.85;41.59
18527;BME280;9393;42.158;24.748;2023-03-14T07:10:51;99871.13;;;11.89;41.46
18527;BME280;9393;42.158;24.748;2023-03-14T07:13:56;99862.59;;;11.68;42.09
18527;BME280;9393;42.158;24.748;2023-03-14T07:17:01;99861.06;;;11.85;41.90
18527;BME280;9393;42.158;24.748;2023-03-14T07:20:06;99853.88;;;11.31;42.49
18527;BME280;9393;42.158;24.748;2023-03-14T07:23:11;99848.53;;;12.25;41.73
18527;BME280;9393;42.158;24.748;2023-03-14T07:26:22;99845.66;;;12.73;40.49
18527;BME280;9393;42.158;24.748;2023-03-14T07:29:29;99843.13;;;12.99;39.84
18527;BME280;9393;42.158;24.748;2023-03-14T07:32:36;99844.03;;;13.25;39.09
18527;BME280;9393;42.158;24.748;2023-03-14T07:35:41;99842.66;;;13.03;39.48
18527;BME280;9393;42.158;24.748;2023-03-14T07:38:45;99835.91;;;13.54;38.31
18527;BME280;9393;42.158;24.748;2023-03-14T07:42:02;99838.94;;;13.67;38.10
18527;BME280;9393;42.158;24.748;2023-03-14T07:45:09;99841.34;;;13.86;37.52
18527;BME280;9393;42.158;24.748;2023-03-14T07:48:14;99826.75;;;13.84;37.14
18527;BME280;9393;42.158;24.748;2023-03-14T07:51:18;99838.31;;;13.99;37.16
18527;BME280;9393;42.158;24.748;2023-03-14T07:54:23;99832.50;;;14.21;36.08
18527;BME280;9393;42.158;24.748;2023-03-14T07:57:27;99830.66;;;14.05;36.16
18527;BME280;9393;42.158;24.748;2023-03-14T08:00:32;99828.03;;;14.13;35.98
18527;BME280;9393;42.158;24.748;2023-03-14T08:03:37;99826.31;;;13.96;35.51
18527;BME280;9393;42.158;24.748;2023-03-14T08:06:41;99821.38;;;14.19;35.50
18527;BME280;9393;42.158;24.748;2023-03-14T08:09:45;99825.94;;;14.51;35.03
18527;BME280;9393;42.158;24.748;2023-03-14T08:12:49;99813.88;;;14.82;34.97
18527;BME280;9393;42.158;24.748;2023-03-14T08:15:55;99815.47;;;14.67;35.27
18527;BME280;9393;42.158;24.748;2023-03-14T08:18:59;99817.69;;;14.04;35.85
18527;BME280;9393;42.158;24.748;2023-03-14T08:22:04;99813.69;;;13.92;36.32
18527;BME280;9393;42.158;24.748;2023-03-14T08:25:09;99810.25;;;14.91;35.01
18527;BME280;9393;42.158;24.748;2023-03-14T08:28:13;99805.66;;;15.26;34.13
18527;BME280;9393;42.158;24.748;2023-03-14T08:31:19;99804.47;;;15.85;33.42
18527;BME280;9393;42.158;24.748;2023-03-14T08:34:23;99797.91;;;16.20;32.54
18527;BME280;9393;42.158;24.748;2023-03-14T08:37:27;99795.38;;;15.95;33.38
18527;BME280;9393;42.158;24.748;2023-03-14T08:40:32;99790.59;;;15.99;32.85
18527;BME280;9393;42.158;24.748;2023-03-14T08:43:36;99792.34;;;15.59;33.01
18527;BME280;9393;42.158;24.748;2023-03-14T08:46:41;99789.25;;;15.56;33.49
18527;BME280;9393;42.158;24.748;2023-03-14T08:49:46;99777.78;;;15.16;33.30
18527;BME280;9393;42.158;24.748;2023-03-14T08:52:50;99764.47;;;15.10;33.30
18527;BME280;9393;42.158;24.748;2023-03-14T08:55:54;99771.03;;;14.82;33.68
18527;BME280;9393;42.158;24.748;2023-03-14T08:58:58;99759.38;;;15.08;33.44
18527;BME280;9393;42.158;24.748;2023-03-14T09:02:05;99753.28;;;15.48;32.67
18527;BME280;9393;42.158;24.748;2023-03-14T09:05:09;99742.94;;;16.25;31.97
18527;BME280;9393;42.158;24.748;2023-03-14T09:08:14;99729.78;;;16.55;31.55
18527;BME280;9393;42.158;24.748;2023-03-14T09:11:19;99731.44;;;16.26;32.19
18527;BME280;9393;42.158;24.748;2023-03-14T09:14:23;99725.44;;;15.78;32.76
18527;BME280;9393;42.158;24.748;2023-03-14T09:17:29;99721.22;;;16.61;32.00
18527;BME280;9393;42.158;24.748;2023-03-14T09:20:33;99711.56;;;16.46;31.83
18527;BME280;9393;42.158;24.748;2023-03-14T09:23:39;99716.56;;;17.24;30.99
18527;BME280;9393;42.158;24.748;2023-03-14T09:26:43;99703.41;;;16.63;31.47
18527;BME280;9393;42.158;24.748;2023-03-14T09:29:47;99699.19;;;16.54;32.09
18527;BME280;9393;42.158;24.748;2023-03-14T09:32:53;99690.66;;;16.22;30.89
18527;BME280;9393;42.158;24.748;2023-03-14T09:35:58;99684.72;;;16.50;30.67
18527;BME280;9393;42.158;24.748;2023-03-14T09:39:03;99678.88;;;16.63;30.96
18527;BME280;9393;42.158;24.748;2023-03-14T09:42:13;99684.25;;;16.47;31.48
18527;BME280;9393;42.158;24.748;2023-03-14T09:45:25;99671.66;;;16.34;31.75
18527;BME280;9393;42.158;24.748;2023-03-14T09:48:33;99670.00;;;17.01;31.16
18527;BME280;9393;42.158;24.748;2023-03-14T09:51:38;99667.19;;;17.47;30.19
18527;BME280;9393;42.158;24.748;2023-03-14T09:54:49;99663.84;;;17.24;30.09
18527;BME280;9393;42.158;24.748;2023-03-14T09:57:57;99664.72;;;17.31;30.01
18527;BME280;9393;42.158;24.748;2023-03-14T10:01:03;99662.06;;;16.87;30.25
18527;BME280;9393;42.158;24.748;2023-03-14T10:04:14;99656.81;;;17.01;30.60
18527;BME280;9393;42.158;24.748;2023-03-14T10:07:23;99646.19;;;17.39;29.93
18527;BME280;9393;42.158;24.748;2023-03-14T10:10:30;99648.72;;;17.76;29.03
18527;BME280;9393;42.158;24.748;2023-03-14T10:13:34;99636.38;;;17.62;29.30
18527;BME280;9393;42.158;24.748;2023-03-14T10:16:41;99624.75;;;17.12;29.74
18527;BME280;9393;42.158;24.748;2023-03-14T10:19:55;99614.50;;;17.03;29.93
18527;BME280;9393;42.158;24.748;2023-03-14T10:23:00;99604.22;;;17.88;28.56
18527;BME280;9393;42.158;24.748;2023-03-14T10:26:08;99596.53;;;17.93;28.68
18527;BME280;9393;42.158;24.748;2023-03-14T10:29:13;99594.75;;;17.13;29.65
18527;BME280;9393;42.158;24.748;2023-03-14T10:32:20;99596.31;;;17.23;29.60
18527;BME280;9393;42.158;24.748;2023-03-14T10:35:26;99593.38;;;17.32;29.97
18527;BME280;9393;42.158;24.748;2023-03-14T10:38:32;99592.69;;;17.24;30.11
18527;BME280;9393;42.158;24.748;2023-03-14T10:41:36;99574.00;;;17.54;29.46
18527;BME280;9393;42.158;24.748;2023-03-14T10:44:41;99562.41;;;17.20;29.82
18527;BME280;9393;42.158;24.748;2023-03-14T10:47:48;99553.59;;;17.78;29.41
18527;BME280;9393;42.158;24.748;2023-03-14T10:51:01;99540.09;;;18.08;29.24
18527;BME280;9393;42.158;24.748;2023-03-14T10:54:13;99536.81;;;17.85;29.32
18527;BME280;9393;42.158;24.748;2023-03-14T10:57:20;99535.06;;;17.71;29.75
18527;BME280;9393;42.158;24.748;2023-03-14T11:00:24;99526.78;;;17.95;29.13
18527;BME280;9393;42.158;24.748;2023-03-14T11:03:31;99516.44;;;18.22;28.71
18527;BME280;9393;42.158;24.748;2023-03-14T11:06:42;99502.13;;;18.09;29.22
18527;BME280;9393;42.158;24.748;2023-03-14T11:09:53;99503.25;;;18.00;29.14
18527;BME280;9393;42.158;24.748;2023-03-14T11:13:06;99488.34;;;18.42;28.89
18527;BME280;9393;42.158;24.748;2023-03-14T11:16:21;99485.28;;;17.47;29.72
18527;BME280;9393;42.158;24.748;2023-03-14T11:19:39;99470.00;;;17.57;29.96
18527;BME280;9393;42.158;24.748;2023-03-14T11:22:50;99462.56;;;17.88;29.61
18527;BME280;9393;42.158;24.748;2023-03-14T11:26:05;99449.06;;;17.77;29.46
18527;BME280;9393;42.158;24.748;2023-03-14T11:29:20;99431.59;;;17.97;29.34
18527;BME280;9393;42.158;24.748;2023-03-14T11:32:36;99426.25;;;18.18;29.00
18527;BME280;9393;42.158;24.748;2023-03-14T11:35:46;99417.34;;;18.19;28.89
18527;BME280;9393;42.158;24.748;2023-03-14T11:39:37;99412.03;;;17.63;29.90
18527;BME280;9393;42.158;24.748;2023-03-14T11:42:43;99403.53;;;17.89;29.64
18527;BME280;9393;42.158;24.748;2023-03-14T11:45:50;99392.38;;;17.94;29.75
18527;BME280;9393;42.158;24.748;2023-03-14T11:49:01;99382.16;;;18.46;29.18
18527;BME280;9393;42.158;24.748;2023-03-14T11:52:10;99373.28;;;18.54;28.92
18527;BME280;9393;42.158;24.748;2023-03-14T11:55:23;99364.50;;;18.47;28.60
18527;BME280;9393;42.158;24.748;2023-03-14T11:58:31;99361.41;;;18.37;28.94
18527;BME280;9393;42.158;24.748;2023-03-14T12:01:49;99343.13;;;18.42;29.22
18527;BME280;9393;42.158;24.748;2023-03-14T12:08:44;99324.63;;;17.94;30.13
18527;BME280;9393;42.158;24.748;2023-03-14T12:11:53;99306.59;;;17.70;30.24
18527;BME280;9393;42.158;24.748;2023-03-14T12:15:00;99297.50;;;18.13;30.09
18527;BME280;9393;42.158;24.748;2023-03-14T12:18:19;99291.28;;;17.31;31.05
18527;BME280;9393;42.158;24.748;2023-03-14T12:21:46;99289.13;;;18.03;30.95
18527;BME280;9393;42.158;24.748;2023-03-14T12:24:54;99282.66;;;17.65;31.32
18527;BME280;9393;42.158;24.748;2023-03-14T12:28:18;99265.50;;;18.30;30.75
18527;BME280;9393;42.158;24.748;2023-03-14T12:31:38;99267.38;;;17.95;30.90
18527;BME280;9393;42.158;24.748;2023-03-14T12:34:43;99262.16;;;17.67;31.58
18527;BME280;9393;42.158;24.748;2023-03-14T12:37:51;99258.34;;;17.76;31.49
18527;BME280;9393;42.158;24.748;2023-03-14T12:41:00;99260.16;;;17.76;31.79
18527;BME280;9393;42.158;24.748;2023-03-14T12:44:40;99253.13;;;17.55;32.14
18527;BME280;9393;42.158;24.748;2023-03-14T12:47:53;99249.81;;;17.46;32.62
18527;BME280;9393;42.158;24.748;2023-03-14T12:51:02;99250.34;;;17.97;31.74
18527;BME280;9393;42.158;24.748;2023-03-14T12:54:19;99241.34;;;18.33;31.39
18527;BME280;9393;42.158;24.748;2023-03-14T12:57:28;99234.53;;;18.04;31.73
18527;BME280;9393;42.158;24.748;2023-03-14T13:00:40;99231.38;;;18.28;31.79
18527;BME280;9393;42.158;24.748;2023-03-14T13:03:47;99227.88;;;18.14;32.04
18527;BME280;9393;42.158;24.748;2023-03-14T13:06:58;99229.41;;;18.37;31.63
18527;BME280;9393;42.158;24.748;2023-03-14T13:10:18;99219.88;;;17.88;32.33
18527;BME280;9393;42.158;24.748;2023-03-14T13:13:24;99214.28;;;18.17;31.71
18527;BME280;9393;42.158;24.748;2023-03-14T13:16:31;99214.94;;;18.20;31.60
18527;BME280;9393;42.158;24.748;2023-03-14T13:19:35;99204.78;;;18.23;31.48
18527;BME280;9393;42.158;24.748;2023-03-14T13:22:46;99200.25;;;17.63;32.02
18527;BME280;9393;42.158;24.748;2023-03-14T13:25:51;99192.22;;;17.78;31.71
18527;BME280;9393;42.158;24.748;2023-03-14T13:28:55;99195.69;;;17.44;32.13
18527;BME280;9393;42.158;24.748;2023-03-14T13:32:12;99189.47;;;17.24;32.41
18527;BME280;9393;42.158;24.748;2023-03-14T13:35:20;99172.69;;;17.03;32.75
18527;BME280;9393;42.158;24.748;2023-03-14T13:38:26;99168.59;;;17.29;32.67
18527;BME280;9393;42.158;24.748;2023-03-14T13:41:31;99156.84;;;17.65;32.08
18527;BME280;9393;42.158;24.748;2023-03-14T13:44:38;99157.81;;;17.92;31.84
18527;BME280;9393;42.158;24.748;2023-03-14T13:47:44;99148.41;;;17.42;32.51
18527;BME280;9393;42.158;24.748;2023-03-14T13:50:56;99142.03;;;17.58;32.44
18527;BME280;9393;42.158;24.748;2023-03-14T13:54:02;99132.72;;;17.28;32.34
18527;BME280;9393;42.158;24.748;2023-03-14T13:57:07;99132.38;;;17.72;32.04
18527;BME280;9393;42.158;24.748;2023-03-14T14:00:18;99121.97;;;17.63;31.91
18527;BME280;9393;42.158;24.748;2023-03-14T14:03:24;99106.69;;;17.52;32.41
18527;BME280;9393;42.158;24.748;2023-03-14T14:06:30;99106.78;;;17.72;32.26
18527;BME280;9393;42.158;24.748;2023-03-14T14:09:37;99085.59;;;17.11;33.00
18527;BME280;9393;42.158;24.748;2023-03-14T14:12:46;99082.94;;;17.46;32.63
18527;BME280;9393;42.158;24.748;2023-03-14T14:15:54;99074.41;;;17.44;32.62
18527;BME280;9393;42.158;24.748;2023-03-14T14:19:01;99074.94;;;17.26;32.64
18527;BME280;9393;42.158;24.748;2023-03-14T14:22:08;99076.97;;;17.31;32.29
18527;BME280;9393;42.158;24.748;2023-03-14T14:25:14;99073.75;;;17.35;32.45
18527;BME280;9393;42.158;24.748;2023-03-14T14:28:25;99072.38;;;17.46;32.29
18527;BME280;9393;42.158;24.748;2023-03-14T14:31:30;99055.44;;;17.61;31.83
18527;BME280;9393;42.158;24.748;2023-03-14T14:34:40;99065.78;;;17.22;32.31
18527;BME280;9393;42.158;24.748;2023-03-14T14:37:52;99051.69;;;17.36;32.05
18527;BME280;9393;42.158;24.748;2023-03-14T14:41:01;99047.13;;;17.58;31.94
18527;BME280;9393;42.158;24.748;2023-03-14T14:44:06;99036.44;;;16.91;32.72
18527;BME280;9393;42.158;24.748;2023-03-14T14:47:13;99039.41;;;17.15;32.64
18527;BME280;9393;42.158;24.748;2023-03-14T14:50:28;99039.63;;;17.21;32.42
18527;BME280;9393;42.158;24.748;2023-03-14T14:53:37;99026.19;;;17.02;32.22
18527;BME280;9393;42.158;24.748;2023-03-14T14:56:48;99020.06;;;16.95;32.43
18527;BME280;9393;42.158;24.748;2023-03-14T14:59:55;99008.81;;;16.74;32.57
18527;BME280;9393;42.158;24.748;2023-03-14T15:03:00;99014.09;;;16.80;32.67
18527;BME280;9393;42.158;24.748;2023-03-14T15:06:07;99015.16;;;16.86;32.53
18527;BME280;9393;42.158;24.748;2023-03-14T15:09:13;99008.16;;;16.65;32.51
18527;BME280;9393;42.158;24.748;2023-03-14T15:12:18;99005.78;;;16.77;32.36
18527;BME280;9393;42.158;24.748;2023-03-14T15:15:23;98999.47;;;16.71;32.11
18527;BME280;9393;42.158;24.748;2023-03-14T15:18:29;98993.78;;;16.67;31.76
18527;BME280;9393;42.158;24.748;2023-03-14T15:21:35;98993.84;;;16.53;31.91
18527;BME280;9393;42.158;24.748;2023-03-14T15:24:40;98994.38;;;16.42;31.57
18527;BME280;9393;42.158;24.748;2023-03-14T15:27:44;98995.59;;;16.11;32.14
18527;BME280;9393;42.158;24.748;2023-03-14T15:30:49;98988.91;;;16.09;32.40
18527;BME280;9393;42.158;24.748;2023-03-14T15:33:54;98982.38;;;16.05;32.31
18527;BME280;9393;42.158;24.748;2023-03-14T15:37:00;98977.69;;;16.00;31.92
18527;BME280;9393;42.158;24.748;2023-03-14T15:40:12;98972.97;;;15.89;31.61
18527;BME280;9393;42.158;24.748;2023-03-14T15:43:17;98971.81;;;15.98;31.65
18527;BME280;9393;42.158;24.748;2023-03-14T15:46:22;98970.13;;;15.91;31.68
18527;BME280;9393;42.158;24.748;2023-03-14T15:49:26;98966.50;;;15.92;32.20
18527;BME280;9393;42.158;24.748;2023-03-14T15:52:32;98963.50;;;15.74;32.32
18527;BME280;9393;42.158;24.748;2023-03-14T15:55:36;98960.81;;;15.67;32.67
18527;BME280;9393;42.158;24.748;2023-03-14T15:58:41;98962.94;;;15.57;32.71
18527;BME280;9393;42.158;24.748;2023-03-14T16:01:49;98969.25;;;15.62;32.50
18527;BME280;9393;42.158;24.748;2023-03-14T16:04:53;98964.91;;;15.55;32.35
18527;BME280;9393;42.158;24.748;2023-03-14T16:07:59;98969.84;;;15.58;32.10
18527;BME280;9393;42.158;24.748;2023-03-14T16:11:04;98966.03;;;15.46;32.06
18527;BME280;9393;42.158;24.748;2023-03-14T16:14:08;98960.75;;;15.46;32.29
18527;BME280;9393;42.158;24.748;2023-03-14T16:17:13;98961.25;;;15.35;32.15
18527;BME280;9393;42.158;24.748;2023-03-14T16:20:17;98964.47;;;15.15;32.57
18527;BME280;9393;42.158;24.748;2023-03-14T16:23:24;98964.72;;;15.21;32.60
18527;BME280;9393;42.158;24.748;2023-03-14T16:26:29;98965.91;;;15.18;32.67
18527;BME280;9393;42.158;24.748;2023-03-14T16:29:36;98959.78;;;15.11;33.10
18527;BME280;9393;42.158;24.748;2023-03-14T16:32:40;98952.66;;;14.90;33.14
18527;BME280;9393;42.158;24.748;2023-03-14T16:35:54;98956.59;;;14.65;33.41
18527;BME280;9393;42.158;24.748;2023-03-14T16:39:00;98952.84;;;14.89;33.64
18527;BME280;9393;42.158;24.748;2023-03-14T16:42:04;98944.34;;;14.87;33.60
18527;BME280;9393;42.158;24.748;2023-03-14T16:45:09;98950.31;;;14.95;33.74
18527;BME280;9393;42.158;24.748;2023-03-14T16:48:14;98942.97;;;14.91;33.58